createdAt,value
2023-01-08T00:00:21.378Z,100729.25
2023-01-08T00:05:43.276Z,100734.34
2023-01-08T00:11:05.253Z,100725.84
2023-01-08T00:16:27.936Z,100727.56
2023-01-08T00:21:49.835Z,100713.03
2023-01-08T00:27:11.687Z,100737.78
2023-01-08T00:32:33.523Z,100724.13
2023-01-08T00:37:55.327Z,100725.84
2023-01-08T00:43:17.163Z,100725.00
2023-01-08T00:48:39.248Z,100731.75
2023-01-08T00:54:01.136Z,100726.66
2023-01-08T00:59:23.112Z,100713.03
2023-01-08T01:04:44.910Z,100710.47
2023-01-08T01:10:07.392Z,100701.94
2023-01-08T01:15:29.246Z,100687.47
2023-01-08T01:20:51.144Z,100698.53
2023-01-08T01:26:20.946Z,100698.53
2023-01-08T01:31:42.826Z,100694.25
2023-01-08T01:37:04.691Z,100689.16
2023-01-08T01:42:26.565Z,100682.34
2023-01-08T01:48:02.212Z,100677.25
2023-01-08T01:53:29.944Z,100679.81
2023-01-08T01:58:51.752Z,100670.44
2023-01-08T02:04:14.585Z,100654.25
2023-01-08T02:09:48.413Z,100642.28
2023-01-08T02:15:16.266Z,100645.75
2023-01-08T02:20:43.942Z,100644.91
2023-01-08T02:26:27.744Z,100625.31
2023-01-08T02:31:50.152Z,100632.09
2023-01-08T02:37:12.075Z,100643.19
2023-01-08T02:42:55.839Z,100634.59
2023-01-08T02:48:43.248Z,100633.72
2023-01-08T02:54:09.595Z,100626.84
2023-01-08T02:59:34.039Z,100620.78
2023-01-08T03:05:03.571Z,100620.75
2023-01-08T03:10:27.466Z,100619.88
2023-01-08T03:15:56.334Z,100599.41
2023-01-08T03:21:20.767Z,100601.09
2023-01-08T03:26:45.567Z,100598.53
2023-01-08T03:32:13.824Z,100601.97
2023-01-08T03:37:40.717Z,100609.66
2023-01-08T03:43:02.758Z,100592.63
2023-01-08T03:48:27.226Z,100600.25
2023-01-08T03:53:52.328Z,100598.59
2023-01-08T03:59:15.366Z,100598.56
2023-01-08T04:04:37.233Z,100596.94
2023-01-08T04:09:59.065Z,100600.28
2023-01-08T04:15:21.172Z,100607.97
2023-01-08T04:20:47.620Z,100599.44
2023-01-08T04:26:09.444Z,100591.66
2023-01-08T04:31:31.668Z,100577.31
2023-01-08T04:36:53.547Z,100581.56
2023-01-08T04:42:15.413Z,100583.25
2023-01-08T04:47:37.245Z,100570.47
2023-01-08T04:52:59.392Z,100583.28
2023-01-08T04:58:21.694Z,100595.22
2023-01-08T05:03:43.514Z,100579.91
2023-01-08T05:09:05.374Z,100583.34
2023-01-08T05:14:27.235Z,100572.25
2023-01-08T05:19:49.040Z,100579.94
2023-01-08T05:25:10.952Z,100574.84
2023-01-08T05:30:32.768Z,100558.66
2023-01-08T05:35:54.757Z,100549.31
2023-01-08T05:41:16.586Z,100570.59
2023-01-08T05:46:38.473Z,100566.31
2023-01-08T05:52:00.331Z,100564.56
2023-01-08T05:57:22.162Z,100555.22
2023-01-08T06:02:48.263Z,100548.44
2023-01-08T06:08:10.222Z,100551.88
2023-01-08T06:13:33.450Z,100553.50
2023-01-08T06:18:55.323Z,100549.34
2023-01-08T06:24:17.193Z,100553.56
2023-01-08T06:29:39.038Z,100547.69
2023-01-08T06:35:00.833Z,100551.06
2023-01-08T06:40:23.891Z,100536.56
2023-01-08T06:45:45.691Z,100524.53
2023-01-08T06:51:07.588Z,100535.56
2023-01-08T06:56:29.472Z,100533.97
2023-01-08T07:01:51.586Z,100519.38
2023-01-08T07:07:14.672Z,100536.38
2023-01-08T07:12:36.548Z,100525.31
2023-01-08T07:17:58.365Z,100535.50
2023-01-08T07:23:20.219Z,100512.56
2023-01-08T07:28:42.257Z,100515.13
2023-01-08T07:34:04.106Z,100520.31
2023-01-08T07:39:25.942Z,100511.88
2023-01-08T07:44:47.764Z,100482.91
2023-01-08T07:50:09.776Z,100482.94
2023-01-08T07:55:31.747Z,100480.44
2023-01-08T08:00:53.974Z,100482.16
2023-01-08T08:06:15.804Z,100477.91
2023-01-08T08:11:37.656Z,100480.44
2023-01-08T08:17:00.959Z,100473.66
2023-01-08T08:22:22.894Z,100483.00
2023-01-08T08:27:45.145Z,100473.69
2023-01-08T08:33:07.251Z,100472.84
2023-01-08T08:38:29.063Z,100460.09
2023-01-08T08:43:50.914Z,100458.44
2023-01-08T08:49:12.752Z,100452.50
2023-01-08T08:54:34.674Z,100433.78
2023-01-08T08:59:56.543Z,100446.53
2023-01-08T09:05:18.423Z,100431.25
2023-01-08T09:10:40.824Z,100415.94
2023-01-08T09:16:02.780Z,100438.91
2023-01-08T09:21:24.690Z,100437.19
2023-01-08T09:26:46.534Z,100437.22
2023-01-08T09:32:08.765Z,100421.03
2023-01-08T09:37:30.772Z,100415.94
2023-01-08T09:43:00.197Z,100419.34
2023-01-08T09:48:28.441Z,100402.31
2023-01-08T09:53:55.548Z,100392.94
2023-01-08T09:59:18.402Z,100379.34
2023-01-08T10:04:41.539Z,100397.16
2023-01-08T10:10:03.566Z,100398.81
2023-01-08T10:15:26.127Z,100367.41
2023-01-08T10:20:47.997Z,100374.94
2023-01-08T10:26:09.804Z,100379.19
2023-01-08T10:31:32.421Z,100363.84
2023-01-08T10:36:55.145Z,100348.56
2023-01-08T10:42:19.447Z,100354.59
2023-01-08T10:47:47.934Z,100344.38
2023-01-08T10:53:28.837Z,100318.94
2023-01-08T10:58:51.486Z,100322.31
2023-01-08T11:04:23.916Z,100321.41
2023-01-08T11:09:48.405Z,100301.13
2023-01-08T11:15:16.177Z,100301.00
2023-01-08T11:20:39.128Z,100306.13
2023-01-08T11:26:04.111Z,100308.66
2023-01-08T11:31:39.965Z,100284.03
2023-01-08T11:37:11.602Z,100295.94
2023-01-08T11:42:59.365Z,100260.16
2023-01-08T11:48:34.150Z,100272.06
2023-01-08T11:54:14.513Z,100277.28
2023-01-08T11:59:36.328Z,100272.91
2023-01-08T12:05:04.033Z,100268.66
2023-01-08T12:10:49.561Z,100277.28
2023-01-08T12:16:35.559Z,100268.78
2023-01-08T12:22:09.448Z,100271.34
2023-01-08T12:28:22.112Z,100259.41
2023-01-08T12:33:56.124Z,100241.56
2023-01-08T12:39:27.012Z,100250.88
2023-01-08T12:44:48.893Z,100241.41
2023-01-08T12:50:21.420Z,100256.03
2023-01-08T12:56:02.888Z,100254.31
2023-01-08T13:01:27.834Z,100256.88
2023-01-08T13:07:18.376Z,100256.00
2023-01-08T13:12:41.121Z,100250.94
2023-01-08T13:18:15.751Z,100236.47
2023-01-08T13:23:37.648Z,100251.84
2023-01-08T13:29:39.280Z,100250.16
2023-01-08T13:35:12.788Z,100232.28
2023-01-08T13:40:44.721Z,100219.50
2023-01-08T13:46:17.924Z,100230.63
2023-01-08T13:51:43.409Z,100216.16
2023-01-08T13:57:17.208Z,100216.16
2023-01-08T14:02:46.506Z,100218.69
2023-01-08T14:08:21.936Z,100218.72
2023-01-08T14:13:44.200Z,100233.19
2023-01-08T14:19:06.341Z,100225.50
2023-01-08T14:24:28.442Z,100225.53
2023-01-08T14:29:50.428Z,100228.06
2023-01-08T14:35:17.711Z,100219.56
2023-01-08T14:40:43.579Z,100206.81
2023-01-08T14:46:27.624Z,100200.91
2023-01-08T14:51:51.308Z,100197.50
2023-01-08T14:57:14.511Z,100206.84
2023-01-08T15:02:37.890Z,100200.03
2023-01-08T15:08:24.256Z,100183.91
2023-01-08T15:13:48.068Z,100182.22
2023-01-08T15:19:18.274Z,100174.59
2023-01-08T15:24:40.141Z,100167.81
2023-01-08T15:30:02.750Z,100166.94
2023-01-08T15:35:24.603Z,100164.38
2023-01-08T15:40:47.212Z,100163.50
2023-01-08T15:46:11.665Z,100164.34
2023-01-08T15:51:35.890Z,100175.41
2023-01-08T15:56:57.756Z,100160.13
2023-01-08T16:02:19.815Z,100154.22
2023-01-08T16:07:41.799Z,100150.78
2023-01-08T16:13:04.420Z,100134.63
2023-01-08T16:18:26.301Z,100115.16
2023-01-08T16:23:48.160Z,100121.06
2023-01-08T16:29:10.030Z,100122.75
2023-01-08T16:34:31.882Z,100102.38
2023-01-08T16:39:53.757Z,100110.88
2023-01-08T16:45:15.659Z,100103.22
2023-01-08T16:50:37.505Z,100079.44
2023-01-08T16:55:59.990Z,100104.91
2023-01-08T17:01:22.157Z,100115.94
2023-01-08T17:06:44.127Z,100107.50
2023-01-08T17:12:06.336Z,100099.81
2023-01-08T17:17:28.175Z,100097.22
2023-01-08T17:22:50.042Z,100090.38
2023-01-08T17:28:11.889Z,100092.16
2023-01-08T17:33:34.612Z,100080.25
2023-01-08T17:38:56.493Z,100079.34
2023-01-08T17:44:18.354Z,100078.50
2023-01-08T17:49:40.244Z,100073.38
2023-01-08T17:55:02.195Z,100060.69
2023-01-08T18:00:24.064Z,100048.75
2023-01-08T18:05:45.898Z,100064.94
2023-01-08T18:11:09.518Z,100041.91
2023-01-08T18:16:32.879Z,100025.78
2023-01-08T18:21:54.701Z,100015.63
2023-01-08T18:27:16.571Z,100025.06
2023-01-08T18:32:38.487Z,100033.44
2023-01-08T18:38:00.331Z,100024.16
2023-01-08T18:43:22.211Z,100019.91
2023-01-08T18:48:44.065Z,100028.31
2023-01-08T18:54:06.106Z,100048.72
2023-01-08T18:59:28.234Z,100052.06
2023-01-08T19:04:52.299Z,100025.75
2023-01-08T19:10:14.731Z,100033.34
2023-01-08T19:15:36.841Z,100021.50
2023-01-08T19:21:00.089Z,100022.28
2023-01-08T19:26:22.302Z,100013.75
2023-01-08T19:31:44.244Z,100009.44
2023-01-08T19:37:06.189Z,100012.81
2023-01-08T19:42:28.858Z,100021.25
2023-01-08T19:47:51.449Z,100015.31
2023-01-08T19:53:15.459Z,100034.84
2023-01-08T19:58:37.699Z,100034.91
2023-01-08T20:03:59.622Z,100035.66
2023-01-08T20:09:22.231Z,100015.41
2023-01-08T20:14:44.087Z,100035.75
2023-01-08T20:20:06.758Z,100032.47
2023-01-08T20:25:28.856Z,100023.81
2023-01-08T20:30:51.095Z,100001.78
2023-01-08T20:36:14.431Z,99995.91
2023-01-08T20:41:36.328Z,99967.00
2023-01-08T20:46:58.180Z,99949.91
2023-01-08T20:52:20.369Z,99931.16
2023-01-08T20:57:42.508Z,99915.97
2023-01-08T21:03:04.356Z,99895.47
2023-01-08T21:08:26.299Z,99888.03
2023-01-08T21:13:48.207Z,99892.22
2023-01-08T21:19:10.605Z,99874.25
2023-01-08T21:24:32.532Z,99869.19
2023-01-08T21:29:54.426Z,99870.66
2023-01-08T21:35:16.399Z,99844.47
2023-01-08T21:40:38.860Z,99846.94
2023-01-08T21:46:01.745Z,99846.81
2023-01-08T21:51:23.623Z,99838.41
2023-01-08T21:56:45.510Z,99825.66
2023-01-08T22:02:07.678Z,99830.75
2023-01-08T22:07:29.648Z,99833.31
2023-01-08T22:12:51.501Z,99823.91
2023-01-08T22:18:13.698Z,99823.03
2023-01-08T22:23:36.360Z,99806.19
2023-01-08T22:28:58.228Z,99817.94
2023-01-08T22:34:20.100Z,99811.91
2023-01-08T22:39:41.913Z,99811.88
2023-01-08T22:45:04.276Z,99804.31
2023-01-08T22:50:26.187Z,99816.94
2023-01-08T22:55:48.137Z,99784.84
2023-01-08T23:01:12.212Z,99780.47
2023-01-08T23:06:34.476Z,99770.44
2023-01-08T23:11:56.296Z,99754.25
2023-01-08T23:17:18.115Z,99744.84
2023-01-08T23:22:40.366Z,99733.03
2023-01-08T23:28:02.236Z,99724.41
2023-01-08T23:33:24.093Z,99704.22
2023-01-08T23:38:47.254Z,99715.25
2023-01-08T23:44:13.967Z,99715.72
2023-01-08T23:49:35.816Z,99689.56
2023-01-08T23:54:57.638Z,99688.84
